sensor_id;sensor_type;location;lat;lon;timestamp;P1;durP1;ratioP1;P2;durP2;ratioP2
21258;SDS011;10787;53.364;-1.480;2024-02-23T00:00:55;7.83;;;2.10;;
21258;SDS011;10787;53.364;-1.480;2024-02-23T00:03:39;4.13;;;1.83;;
21258;SDS011;10787;53.364;-1.480;2024-02-23T00:06:23;5.20;;;1.93;;
21258;SDS011;10787;53.364;-1.480;2024-02-23T00:09:11;7.03;;;1.83;;
21258;SDS011;10787;53.364;-1.480;2024-02-23T00:11:55;7.67;;;1.90;;
21258;SDS011;10787;53.364;-1.480;2024-02-23T00:14:40;9.30;;;2.53;;
21258;SDS011;10787;53.364;-1.480;2024-02-23T00:17:24;5.63;;;2.00;;
21258;SDS011;10787;53.364;-1.480;2024-02-23T00:20:08;9.13;;;2.20;;
21258;SDS011;10787;53.364;-1.480;2024-02-23T00:22:58;4.87;;;1.70;;
21258;SDS011;10787;53.364;-1.480;2024-02-23T00:25:42;4.87;;;1.57;;
21258;SDS011;10787;53.364;-1.480;2024-02-23T00:28:27;5.20;;;1.43;;
21258;SDS011;10787;53.364;-1.480;2024-02-23T00:31:11;4.53;;;1.60;;
21258;SDS011;10787;53.364;-1.480;2024-02-23T00:33:56;4.10;;;1.50;;
21258;SDS011;10787;53.364;-1.480;2024-02-23T00:36:40;3.97;;;1.60;;
21258;SDS011;10787;53.364;-1.480;2024-02-23T00:39:26;7.30;;;1.50;;
21258;SDS011;10787;53.364;-1.480;2024-02-23T00:42:10;3.60;;;1.23;;
21258;SDS011;10787;53.364;-1.480;2024-02-23T00:44:54;5.50;;;1.47;;
21258;SDS011;10787;53.364;-1.480;2024-02-23T00:47:39;6.20;;;1.80;;
21258;SDS011;10787;53.364;-1.480;2024-02-23T00:50:23;8.17;;;1.70;;
21258;SDS011;10787;53.364;-1.480;2024-02-23T00:53:09;5.17;;;1.60;;
21258;SDS011;10787;53.364;-1.480;2024-02-23T00:55:54;6.40;;;1.60;;
21258;SDS011;10787;53.364;-1.480;2024-02-23T00:58:38;4.37;;;1.40;;
21258;SDS011;10787;53.364;-1.480;2024-02-23T01:01:23;3.30;;;1.53;;
21258;SDS011;10787;53.364;-1.480;2024-02-23T01:04:07;6.43;;;1.70;;
21258;SDS011;10787;53.364;-1.480;2024-02-23T01:06:52;4.63;;;1.50;;
21258;SDS011;10787;53.364;-1.480;2024-02-23T01:09:36;6.67;;;1.57;;
21258;SDS011;10787;53.364;-1.480;2024-02-23T01:12:21;5.27;;;1.80;;
21258;SDS011;10787;53.364;-1.480;2024-02-23T01:15:05;5.20;;;1.40;;
21258;SDS011;10787;53.364;-1.480;2024-02-23T01:17:50;4.20;;;1.53;;
21258;SDS011;10787;53.364;-1.480;2024-02-23T01:20:34;6.10;;;1.70;;
21258;SDS011;10787;53.364;-1.480;2024-02-23T01:23:18;8.07;;;1.97;;
21258;SDS011;10787;53.364;-1.480;2024-02-23T01:26:03;5.83;;;1.50;;
21258;SDS011;10787;53.364;-1.480;2024-02-23T01:28:47;6.50;;;1.60;;
21258;SDS011;10787;53.364;-1.480;2024-02-23T01:31:31;7.40;;;1.70;;
21258;SDS011;10787;53.364;-1.480;2024-02-23T01:34:15;6.60;;;1.60;;
21258;SDS011;10787;53.364;-1.480;2024-02-23T01:37:00;7.77;;;1.43;;
21258;SDS011;10787;53.364;-1.480;2024-02-23T01:39:44;6.77;;;1.53;;
21258;SDS011;10787;53.364;-1.480;2024-02-23T01:42:28;4.23;;;1.30;;
21258;SDS011;10787;53.364;-1.480;2024-02-23T01:45:13;4.47;;;1.40;;
21258;SDS011;10787;53.364;-1.480;2024-02-23T01:47:58;6.33;;;1.43;;
21258;SDS011;10787;53.364;-1.480;2024-02-23T01:50:43;6.60;;;1.40;;
21258;SDS011;10787;53.364;-1.480;2024-02-23T01:53:28;5.50;;;1.40;;
21258;SDS011;10787;53.364;-1.480;2024-02-23T01:56:13;6.13;;;1.60;;
21258;SDS011;10787;53.364;-1.480;2024-02-23T01:59:02;7.07;;;1.70;;
21258;SDS011;10787;53.364;-1.480;2024-02-23T02:01:47;5.43;;;1.50;;
21258;SDS011;10787;53.364;-1.480;2024-02-23T02:04:32;8.90;;;2.10;;
21258;SDS011;10787;53.364;-1.480;2024-02-23T02:07:16;7.00;;;1.60;;
21258;SDS011;10787;53.364;-1.480;2024-02-23T02:10:02;5.33;;;1.70;;
21258;SDS011;10787;53.364;-1.480;2024-02-23T02:12:48;5.13;;;1.53;;
21258;SDS011;10787;53.364;-1.480;2024-02-23T02:15:32;5.43;;;1.50;;
21258;SDS011;10787;53.364;-1.480;2024-02-23T02:18:17;5.77;;;1.33;;
21258;SDS011;10787;53.364;-1.480;2024-02-23T02:21:02;7.23;;;1.60;;
21258;SDS011;10787;53.364;-1.480;2024-02-23T02:23:47;3.60;;;1.40;;
21258;SDS011;10787;53.364;-1.480;2024-02-23T02:26:31;8.13;;;1.40;;
21258;SDS011;10787;53.364;-1.480;2024-02-23T02:29:15;6.80;;;1.50;;
21258;SDS011;10787;53.364;-1.480;2024-02-23T02:32:00;6.30;;;1.57;;
21258;SDS011;10787;53.364;-1.480;2024-02-23T02:34:45;6.93;;;1.73;;
21258;SDS011;10787;53.364;-1.480;2024-02-23T02:37:29;6.57;;;1.20;;
21258;SDS011;10787;53.364;-1.480;2024-02-23T02:40:13;5.80;;;1.20;;
21258;SDS011;10787;53.364;-1.480;2024-02-23T02:42:57;3.70;;;1.30;;
21258;SDS011;10787;53.364;-1.480;2024-02-23T02:45:41;3.40;;;1.50;;
21258;SDS011;10787;53.364;-1.480;2024-02-23T02:48:26;7.63;;;1.50;;
21258;SDS011;10787;53.364;-1.480;2024-02-23T02:51:10;4.67;;;1.63;;
21258;SDS011;10787;53.364;-1.480;2024-02-23T02:53:54;8.40;;;1.67;;
21258;SDS011;10787;53.364;-1.480;2024-02-23T02:56:46;5.80;;;1.50;;
21258;SDS011;10787;53.364;-1.480;2024-02-23T02:59:34;3.70;;;1.37;;
21258;SDS011;10787;53.364;-1.480;2024-02-23T03:02:19;5.40;;;1.53;;
21258;SDS011;10787;53.364;-1.480;2024-02-23T03:05:04;5.80;;;1.63;;
21258;SDS011;10787;53.364;-1.480;2024-02-23T03:07:49;5.30;;;1.30;;
21258;SDS011;10787;53.364;-1.480;2024-02-23T03:10:34;5.07;;;1.20;;
21258;SDS011;10787;53.364;-1.480;2024-02-23T03:13:18;5.33;;;1.27;;
21258;SDS011;10787;53.364;-1.480;2024-02-23T03:16:02;4.23;;;1.30;;
21258;SDS011;10787;53.364;-1.480;2024-02-23T03:18:47;3.93;;;1.27;;
21258;SDS011;10787;53.364;-1.480;2024-02-23T03:21:31;7.00;;;1.37;;
21258;SDS011;10787;53.364;-1.480;2024-02-23T03:24:15;4.90;;;1.33;;
21258;SDS011;10787;53.364;-1.480;2024-02-23T03:27:00;6.20;;;1.33;;
21258;SDS011;10787;53.364;-1.480;2024-02-23T03:29:44;3.30;;;1.27;;
21258;SDS011;10787;53.364;-1.480;2024-02-23T03:32:28;5.23;;;1.20;;
21258;SDS011;10787;53.364;-1.480;2024-02-23T03:35:14;5.07;;;1.30;;
21258;SDS011;10787;53.364;-1.480;2024-02-23T03:37:59;6.33;;;1.40;;
21258;SDS011;10787;53.364;-1.480;2024-02-23T03:40:43;4.63;;;1.50;;
21258;SDS011;10787;53.364;-1.480;2024-02-23T03:43:27;4.60;;;1.33;;
21258;SDS011;10787;53.364;-1.480;2024-02-23T03:46:12;4.70;;;1.60;;
21258;SDS011;10787;53.364;-1.480;2024-02-23T03:48:58;4.37;;;1.33;;
21258;SDS011;10787;53.364;-1.480;2024-02-23T03:51:42;5.07;;;1.53;;
21258;SDS011;10787;53.364;-1.480;2024-02-23T03:54:27;3.90;;;1.40;;
21258;SDS011;10787;53.364;-1.480;2024-02-23T03:57:11;4.50;;;1.30;;
21258;SDS011;10787;53.364;-1.480;2024-02-23T03:59:56;5.37;;;1.60;;
21258;SDS011;10787;53.364;-1.480;2024-02-23T04:02:41;4.90;;;1.50;;
21258;SDS011;10787;53.364;-1.480;2024-02-23T04:05:25;4.37;;;1.40;;
21258;SDS011;10787;53.364;-1.480;2024-02-23T04:08:09;5.50;;;1.40;;
21258;SDS011;10787;53.364;-1.480;2024-02-23T04:10:53;6.23;;;1.27;;
21258;SDS011;10787;53.364;-1.480;2024-02-23T04:13:38;7.10;;;1.30;;
21258;SDS011;10787;53.364;-1.480;2024-02-23T04:16:23;4.13;;;1.40;;
21258;SDS011;10787;53.364;-1.480;2024-02-23T04:19:08;5.43;;;1.77;;
21258;SDS011;10787;53.364;-1.480;2024-02-23T04:21:52;2.70;;;1.40;;
21258;SDS011;10787;53.364;-1.480;2024-02-23T04:24:40;12.83;;;2.00;;
21258;SDS011;10787;53.364;-1.480;2024-02-23T04:27:25;4.63;;;1.77;;
21258;SDS011;10787;53.364;-1.480;2024-02-23T04:30:09;3.27;;;1.20;;
21258;SDS011;10787;53.364;-1.480;2024-02-23T04:32:54;5.00;;;1.70;;
21258;SDS011;10787;53.364;-1.480;2024-02-23T04:35:38;6.30;;;1.60;;
21258;SDS011;10787;53.364;-1.480;2024-02-23T04:38:22;5.73;;;1.40;;
21258;SDS011;10787;53.364;-1.480;2024-02-23T04:41:06;4.97;;;1.70;;
21258;SDS011;10787;53.364;-1.480;2024-02-23T04:43:51;2.93;;;1.47;;
21258;SDS011;10787;53.364;-1.480;2024-02-23T04:46:35;4.50;;;1.70;;
21258;SDS011;10787;53.364;-1.480;2024-02-23T04:49:19;4.47;;;1.67;;
21258;SDS011;10787;53.364;-1.480;2024-02-23T04:52:05;4.83;;;1.57;;
21258;SDS011;10787;53.364;-1.480;2024-02-23T04:54:49;3.53;;;1.47;;
21258;SDS011;10787;53.364;-1.480;2024-02-23T04:57:36;5.57;;;2.00;;
21258;SDS011;10787;53.364;-1.480;2024-02-23T05:00:21;4.20;;;1.80;;
21258;SDS011;10787;53.364;-1.480;2024-02-23T05:03:05;4.33;;;1.83;;
21258;SDS011;10787;53.364;-1.480;2024-02-23T05:05:49;4.87;;;1.80;;
21258;SDS011;10787;53.364;-1.480;2024-02-23T05:08:37;5.17;;;2.00;;
21258;SDS011;10787;53.364;-1.480;2024-02-23T05:11:22;3.97;;;1.70;;
21258;SDS011;10787;53.364;-1.480;2024-02-23T05:14:06;3.63;;;1.83;;
21258;SDS011;10787;53.364;-1.480;2024-02-23T05:16:50;3.87;;;1.80;;
21258;SDS011;10787;53.364;-1.480;2024-02-23T05:19:35;3.33;;;1.90;;
21258;SDS011;10787;53.364;-1.480;2024-02-23T05:22:19;4.97;;;1.63;;
21258;SDS011;10787;53.364;-1.480;2024-02-23T05:25:03;4.17;;;1.70;;
21258;SDS011;10787;53.364;-1.480;2024-02-23T05:27:51;5.50;;;2.07;;
21258;SDS011;10787;53.364;-1.480;2024-02-23T05:30:35;5.13;;;2.00;;
21258;SDS011;10787;53.364;-1.480;2024-02-23T05:33:20;4.77;;;2.00;;
21258;SDS011;10787;53.364;-1.480;2024-02-23T05:36:04;4.50;;;1.93;;
21258;SDS011;10787;53.364;-1.480;2024-02-23T05:38:49;5.67;;;2.10;;
21258;SDS011;10787;53.364;-1.480;2024-02-23T05:41:33;4.63;;;2.10;;
21258;SDS011;10787;53.364;-1.480;2024-02-23T05:44:18;3.77;;;1.90;;
21258;SDS011;10787;53.364;-1.480;2024-02-23T05:47:02;3.87;;;1.77;;
21258;SDS011;10787;53.364;-1.480;2024-02-23T05:49:47;4.70;;;2.00;;
21258;SDS011;10787;53.364;-1.480;2024-02-23T05:52:31;8.00;;;2.40;;
21258;SDS011;10787;53.364;-1.480;2024-02-23T05:55:16;4.07;;;2.23;;
21258;SDS011;10787;53.364;-1.480;2024-02-23T05:58:00;4.00;;;1.97;;
21258;SDS011;10787;53.364;-1.480;2024-02-23T06:00:45;5.87;;;2.50;;
21258;SDS011;10787;53.364;-1.480;2024-02-23T06:03:29;4.47;;;2.30;;
21258;SDS011;10787;53.364;-1.480;2024-02-23T06:06:13;4.33;;;2.30;;
21258;SDS011;10787;53.364;-1.480;2024-02-23T06:08:58;4.23;;;2.23;;
21258;SDS011;10787;53.364;-1.480;2024-02-23T06:11:44;4.10;;;2.37;;
21258;SDS011;10787;53.364;-1.480;2024-02-23T06:14:28;3.93;;;2.30;;
21258;SDS011;10787;53.364;-1.480;2024-02-23T06:17:12;7.40;;;2.33;;
21258;SDS011;10787;53.364;-1.480;2024-02-23T06:19:57;5.23;;;2.23;;
21258;SDS011;10787;53.364;-1.480;2024-02-23T06:22:42;5.40;;;2.90;;
21258;SDS011;10787;53.364;-1.480;2024-02-23T06:25:27;7.83;;;3.20;;
21258;SDS011;10787;53.364;-1.480;2024-02-23T06:28:11;6.00;;;2.77;;
21258;SDS011;10787;53.364;-1.480;2024-02-23T06:30:55;7.43;;;2.60;;
21258;SDS011;10787;53.364;-1.480;2024-02-23T06:33:39;5.47;;;2.40;;
21258;SDS011;10787;53.364;-1.480;2024-02-23T06:36:24;9.17;;;2.87;;
21258;SDS011;10787;53.364;-1.480;2024-02-23T06:39:08;4.23;;;2.40;;
21258;SDS011;10787;53.364;-1.480;2024-02-23T06:41:53;5.07;;;2.40;;
21258;SDS011;10787;53.364;-1.480;2024-02-23T06:44:37;5.13;;;2.57;;
21258;SDS011;10787;53.364;-1.480;2024-02-23T06:47:21;4.33;;;2.70;;
21258;SDS011;10787;53.364;-1.480;2024-02-23T06:50:06;3.67;;;2.20;;
21258;SDS011;10787;53.364;-1.480;2024-02-23T06:52:52;4.13;;;2.80;;
21258;SDS011;10787;53.364;-1.480;2024-02-23T06:55:36;7.37;;;2.50;;
21258;SDS011;10787;53.364;-1.480;2024-02-23T06:58:20;5.20;;;3.13;;
21258;SDS011;10787;53.364;-1.480;2024-02-23T07:01:05;7.83;;;3.40;;
21258;SDS011;10787;53.364;-1.480;2024-02-23T07:03:50;7.47;;;3.50;;
21258;SDS011;10787;53.364;-1.480;2024-02-23T07:06:34;4.90;;;3.33;;
21258;SDS011;10787;53.364;-1.480;2024-02-23T07:09:20;8.80;;;4.17;;
21258;SDS011;10787;53.364;-1.480;2024-02-23T07:12:05;6.90;;;3.77;;
21258;SDS011;10787;53.364;-1.480;2024-02-23T07:14:50;9.30;;;3.93;;
21258;SDS011;10787;53.364;-1.480;2024-02-23T07:17:34;6.93;;;3.93;;
21258;SDS011;10787;53.364;-1.480;2024-02-23T07:20:18;8.37;;;3.93;;
21258;SDS011;10787;53.364;-1.480;2024-02-23T07:23:04;5.97;;;4.00;;
21258;SDS011;10787;53.364;-1.480;2024-02-23T07:25:48;5.97;;;3.40;;
21258;SDS011;10787;53.364;-1.480;2024-02-23T07:28:34;4.47;;;3.30;;
21258;SDS011;10787;53.364;-1.480;2024-02-23T07:31:18;6.67;;;3.50;;
21258;SDS011;10787;53.364;-1.480;2024-02-23T07:34:02;6.33;;;3.80;;
21258;SDS011;10787;53.364;-1.480;2024-02-23T07:36:46;4.53;;;3.53;;
21258;SDS011;10787;53.364;-1.480;2024-02-23T07:39:30;7.47;;;3.20;;
21258;SDS011;10787;53.364;-1.480;2024-02-23T07:42:15;5.83;;;3.27;;
21258;SDS011;10787;53.364;-1.480;2024-02-23T07:45:03;7.20;;;3.23;;
21258;SDS011;10787;53.364;-1.480;2024-02-23T07:47:47;5.87;;;3.37;;
21258;SDS011;10787;53.364;-1.480;2024-02-23T07:50:31;5.37;;;3.20;;
21258;SDS011;10787;53.364;-1.480;2024-02-23T07:53:18;5.43;;;3.20;;
21258;SDS011;10787;53.364;-1.480;2024-02-23T07:56:03;6.73;;;3.00;;
21258;SDS011;10787;53.364;-1.480;2024-02-23T07:58:48;6.07;;;2.87;;
21258;SDS011;10787;53.364;-1.480;2024-02-23T08:01:32;6.27;;;3.07;;
21258;SDS011;10787;53.364;-1.480;2024-02-23T08:04:16;5.60;;;2.97;;
21258;SDS011;10787;53.364;-1.480;2024-02-23T08:07:00;5.47;;;3.40;;
21258;SDS011;10787;53.364;-1.480;2024-02-23T08:09:44;6.53;;;3.20;;
21258;SDS011;10787;53.364;-1.480;2024-02-23T08:12:28;5.97;;;3.60;;
21258;SDS011;10787;53.364;-1.480;2024-02-23T08:15:12;7.87;;;3.70;;
21258;SDS011;10787;53.364;-1.480;2024-02-23T08:17:57;5.90;;;3.70;;
21258;SDS011;10787;53.364;-1.480;2024-02-23T08:20:41;5.97;;;3.50;;
21258;SDS011;10787;53.364;-1.480;2024-02-23T08:23:25;7.20;;;3.73;;
21258;SDS011;10787;53.364;-1.480;2024-02-23T08:26:09;7.27;;;4.10;;
21258;SDS011;10787;53.364;-1.480;2024-02-23T08:28:53;7.07;;;4.17;;
21258;SDS011;10787;53.364;-1.480;2024-02-23T08:31:37;8.97;;;4.30;;
21258;SDS011;10787;53.364;-1.480;2024-02-23T08:34:21;7.67;;;4.30;;
21258;SDS011;10787;53.364;-1.480;2024-02-23T08:37:06;8.80;;;3.93;;
21258;SDS011;10787;53.364;-1.480;2024-02-23T08:39:51;11.40;;;4.57;;
21258;SDS011;10787;53.364;-1.480;2024-02-23T08:42:35;8.87;;;4.40;;
21258;SDS011;10787;53.364;-1.480;2024-02-23T08:45:20;9.73;;;4.27;;
21258;SDS011;10787;53.364;-1.480;2024-02-23T08:48:04;8.90;;;4.20;;
21258;SDS011;10787;53.364;-1.480;2024-02-23T08:50:49;9.30;;;4.23;;
21258;SDS011;10787;53.364;-1.480;2024-02-23T08:53:33;8.60;;;4.13;;
21258;SDS011;10787;53.364;-1.480;2024-02-23T08:56:18;7.70;;;4.00;;
21258;SDS011;10787;53.364;-1.480;2024-02-23T08:59:01;8.33;;;4.00;;
21258;SDS011;10787;53.364;-1.480;2024-02-23T09:01:45;6.10;;;3.27;;
21258;SDS011;10787;53.364;-1.480;2024-02-23T09:04:30;8.20;;;2.40;;
21258;SDS011;10787;53.364;-1.480;2024-02-23T09:07:15;5.23;;;2.30;;
21258;SDS011;10787;53.364;-1.480;2024-02-23T09:10:00;6.87;;;2.10;;
21258;SDS011;10787;53.364;-1.480;2024-02-23T09:12:44;3.90;;;1.97;;
21258;SDS011;10787;53.364;-1.480;2024-02-23T09:15:28;5.23;;;2.20;;
21258;SDS011;10787;53.364;-1.480;2024-02-23T09:18:12;4.93;;;1.90;;
21258;SDS011;10787;53.364;-1.480;2024-02-23T09:20:56;5.03;;;1.80;;
21258;SDS011;10787;53.364;-1.480;2024-02-23T09:23:40;5.73;;;2.30;;
21258;SDS011;10787;53.364;-1.480;2024-02-23T09:26:24;7.07;;;2.90;;
21258;SDS011;10787;53.364;-1.480;2024-02-23T09:29:08;8.97;;;3.10;;
21258;SDS011;10787;53.364;-1.480;2024-02-23T09:31:53;4.70;;;2.70;;
21258;SDS011;10787;53.364;-1.480;2024-02-23T09:34:37;5.20;;;2.00;;
21258;SDS011;10787;53.364;-1.480;2024-02-23T09:37:21;5.73;;;1.93;;
21258;SDS011;10787;53.364;-1.480;2024-02-23T09:40:06;8.33;;;2.07;;
21258;SDS011;10787;53.364;-1.480;2024-02-23T09:42:57;5.63;;;2.07;;
21258;SDS011;10787;53.364;-1.480;2024-02-23T09:45:42;5.73;;;2.30;;
21258;SDS011;10787;53.364;-1.480;2024-02-23T09:48:28;6.70;;;2.47;;
21258;SDS011;10787;53.364;-1.480;2024-02-23T09:51:17;5.23;;;2.33;;
21258;SDS011;10787;53.364;-1.480;2024-02-23T09:54:01;6.60;;;2.63;;
21258;SDS011;10787;53.364;-1.480;2024-02-23T09:56:46;6.90;;;2.60;;
21258;SDS011;10787;53.364;-1.480;2024-02-23T09:59:31;7.90;;;2.73;;
21258;SDS011;10787;53.364;-1.480;2024-02-23T10:02:16;5.87;;;2.93;;
21258;SDS011;10787;53.364;-1.480;2024-02-23T10:05:00;5.77;;;2.37;;
21258;SDS011;10787;53.364;-1.480;2024-02-23T10:07:46;6.80;;;2.70;;
21258;SDS011;10787;53.364;-1.480;2024-02-23T10:10:30;7.73;;;3.77;;
21258;SDS011;10787;53.364;-1.480;2024-02-23T10:13:20;6.70;;;2.50;;
21258;SDS011;10787;53.364;-1.480;2024-02-23T10:16:05;7.30;;;2.53;;
21258;SDS011;10787;53.364;-1.480;2024-02-23T10:18:50;8.20;;;2.57;;
21258;SDS011;10787;53.364;-1.480;2024-02-23T10:21:34;5.77;;;2.10;;
21258;SDS011;10787;53.364;-1.480;2024-02-23T10:24:19;4.20;;;2.10;;
21258;SDS011;10787;53.364;-1.480;2024-02-23T10:27:04;5.33;;;2.10;;
21258;SDS011;10787;53.364;-1.480;2024-02-23T10:29:51;7.17;;;2.50;;
21258;SDS011;10787;53.364;-1.480;2024-02-23T10:32:38;6.17;;;2.03;;
21258;SDS011;10787;53.364;-1.480;2024-02-23T10:35:24;7.93;;;2.67;;
21258;SDS011;10787;53.364;-1.480;2024-02-23T10:38:08;5.60;;;1.90;;
21258;SDS011;10787;53.364;-1.480;2024-02-23T10:40:57;5.37;;;1.73;;
21258;SDS011;10787;53.364;-1.480;2024-02-23T10:43:44;4.93;;;2.00;;
21258;SDS011;10787;53.364;-1.480;2024-02-23T10:46:30;4.03;;;1.80;;
21258;SDS011;10787;53.364;-1.480;2024-02-23T10:49:15;6.90;;;1.63;;
21258;SDS011;10787;53.364;-1.480;2024-02-23T10:52:03;3.77;;;1.50;;
21258;SDS011;10787;53.364;-1.480;2024-02-23T10:54:48;3.67;;;1.60;;
21258;SDS011;10787;53.364;-1.480;2024-02-23T10:57:35;4.93;;;1.70;;
21258;SDS011;10787;53.364;-1.480;2024-02-23T11:00:21;6.73;;;1.77;;
21258;SDS011;10787;53.364;-1.480;2024-02-23T11:03:05;4.63;;;1.53;;
21258;SDS011;10787;53.364;-1.480;2024-02-23T11:05:50;5.57;;;2.00;;
21258;SDS011;10787;53.364;-1.480;2024-02-23T11:08:38;5.70;;;1.80;;
21258;SDS011;10787;53.364;-1.480;2024-02-23T11:11:22;5.13;;;1.70;;
21258;SDS011;10787;53.364;-1.480;2024-02-23T11:14:09;5.30;;;1.83;;
21258;SDS011;10787;53.364;-1.480;2024-02-23T11:16:54;5.33;;;1.90;;
21258;SDS011;10787;53.364;-1.480;2024-02-23T11:19:39;3.37;;;1.50;;
21258;SDS011;10787;53.364;-1.480;2024-02-23T11:22:24;4.87;;;1.73;;
21258;SDS011;10787;53.364;-1.480;2024-02-23T11:25:10;4.93;;;1.60;;
21258;SDS011;10787;53.364;-1.480;2024-02-23T11:27:54;7.17;;;1.90;;
21258;SDS011;10787;53.364;-1.480;2024-02-23T11:30:43;8.43;;;2.07;;
21258;SDS011;10787;53.364;-1.480;2024-02-23T11:33:29;7.07;;;2.03;;
21258;SDS011;10787;53.364;-1.480;2024-02-23T11:36:22;3.70;;;1.33;;
21258;SDS011;10787;53.364;-1.480;2024-02-23T11:39:07;4.87;;;1.47;;
21258;SDS011;10787;53.364;-1.480;2024-02-23T11:41:56;5.93;;;1.60;;
21258;SDS011;10787;53.364;-1.480;2024-02-23T11:44:42;6.37;;;1.60;;
21258;SDS011;10787;53.364;-1.480;2024-02-23T11:47:26;2.70;;;1.30;;
21258;SDS011;10787;53.364;-1.480;2024-02-23T11:50:11;5.30;;;1.33;;
21258;SDS011;10787;53.364;-1.480;2024-02-23T11:52:55;5.57;;;1.83;;
21258;SDS011;10787;53.364;-1.480;2024-02-23T11:55:41;10.00;;;5.80;;
21258;SDS011;10787;53.364;-1.480;2024-02-23T11:58:25;8.57;;;5.00;;
21258;SDS011;10787;53.364;-1.480;2024-02-23T12:01:10;10.50;;;6.47;;
21258;SDS011;10787;53.364;-1.480;2024-02-23T12:03:55;10.90;;;7.33;;
21258;SDS011;10787;53.364;-1.480;2024-02-23T12:06:39;12.57;;;6.97;;
21258;SDS011;10787;53.364;-1.480;2024-02-23T12:09:24;10.33;;;6.13;;
21258;SDS011;10787;53.364;-1.480;2024-02-23T12:12:08;7.70;;;4.47;;
21258;SDS011;10787;53.364;-1.480;2024-02-23T12:14:53;7.37;;;2.77;;
21258;SDS011;10787;53.364;-1.480;2024-02-23T12:17:37;5.50;;;2.80;;
21258;SDS011;10787;53.364;-1.480;2024-02-23T12:20:34;4.43;;;2.20;;
21258;SDS011;10787;53.364;-1.480;2024-02-23T12:23:19;3.03;;;1.57;;
21258;SDS011;10787;53.364;-1.480;2024-02-23T12:26:04;3.53;;;1.17;;
21258;SDS011;10787;53.364;-1.480;2024-02-23T12:28:48;3.10;;;1.30;;
21258;SDS011;10787;53.364;-1.480;2024-02-23T12:31:33;3.93;;;1.20;;
21258;SDS011;10787;53.364;-1.480;2024-02-23T12:34:18;4.90;;;1.57;;
21258;SDS011;10787;53.364;-1.480;2024-02-23T12:37:04;5.47;;;1.07;;
21258;SDS011;10787;53.364;-1.480;2024-02-23T12:39:48;6.30;;;1.13;;
21258;SDS011;10787;53.364;-1.480;2024-02-23T12:42:33;2.10;;;0.90;;
21258;SDS011;10787;53.364;-1.480;2024-02-23T12:45:17;3.93;;;1.00;;
21258;SDS011;10787;53.364;-1.480;2024-02-23T12:48:02;4.73;;;0.97;;
21258;SDS011;10787;53.364;-1.480;2024-02-23T12:50:47;2.00;;;0.80;;
21258;SDS011;10787;53.364;-1.480;2024-02-23T12:53:35;3.70;;;1.20;;
21258;SDS011;10787;53.364;-1.480;2024-02-23T12:56:21;5.20;;;1.50;;
21258;SDS011;10787;53.364;-1.480;2024-02-23T12:59:05;3.17;;;0.90;;
21258;SDS011;10787;53.364;-1.480;2024-02-23T13:01:50;6.77;;;0.93;;
21258;SDS011;10787;53.364;-1.480;2024-02-23T13:04:35;3.10;;;0.90;;
21258;SDS011;10787;53.364;-1.480;2024-02-23T13:07:19;3.85;;;0.70;;
21258;SDS011;10787;53.364;-1.480;2024-02-23T13:10:04;2.25;;;0.70;;
21258;SDS011;10787;53.364;-1.480;2024-02-23T13:12:48;2.78;;;0.77;;
21258;SDS011;10787;53.364;-1.480;2024-02-23T13:15:33;3.75;;;1.05;;
21258;SDS011;10787;53.364;-1.480;2024-02-23T13:18:20;2.80;;;0.82;;
21258;SDS011;10787;53.364;-1.480;2024-02-23T13:21:05;3.22;;;1.00;;
21258;SDS011;10787;53.364;-1.480;2024-02-23T13:23:49;3.45;;;1.00;;
21258;SDS011;10787;53.364;-1.480;2024-02-23T13:26:33;3.50;;;0.90;;
21258;SDS011;10787;53.364;-1.480;2024-02-23T13:29:18;2.30;;;0.80;;
21258;SDS011;10787;53.364;-1.480;2024-02-23T13:32:02;4.07;;;0.97;;
21258;SDS011;10787;53.364;-1.480;2024-02-23T13:34:47;3.97;;;1.10;;
21258;SDS011;10787;53.364;-1.480;2024-02-23T13:37:35;4.53;;;1.27;;
21258;SDS011;10787;53.364;-1.480;2024-02-23T13:40:19;4.53;;;1.10;;
21258;SDS011;10787;53.364;-1.480;2024-02-23T13:43:04;2.63;;;0.90;;
21258;SDS011;10787;53.364;-1.480;2024-02-23T13:45:51;3.33;;;0.97;;
21258;SDS011;10787;53.364;-1.480;2024-02-23T13:48:36;3.97;;;0.90;;
21258;SDS011;10787;53.364;-1.480;2024-02-23T13:51:20;3.93;;;0.90;;
21258;SDS011;10787;53.364;-1.480;2024-02-23T13:54:05;5.30;;;1.30;;
21258;SDS011;10787;53.364;-1.480;2024-02-23T13:56:49;4.40;;;1.00;;
21258;SDS011;10787;53.364;-1.480;2024-02-23T13:59:33;4.70;;;0.90;;
21258;SDS011;10787;53.364;-1.480;2024-02-23T14:02:24;3.00;;;1.00;;
21258;SDS011;10787;53.364;-1.480;2024-02-23T14:05:09;3.33;;;1.10;;
21258;SDS011;10787;53.364;-1.480;2024-02-23T14:07:54;4.13;;;0.90;;
21258;SDS011;10787;53.364;-1.480;2024-02-23T14:10:38;2.53;;;0.80;;
21258;SDS011;10787;53.364;-1.480;2024-02-23T14:13:24;3.87;;;1.07;;
21258;SDS011;10787;53.364;-1.480;2024-02-23T14:16:08;2.93;;;0.87;;
21258;SDS011;10787;53.364;-1.480;2024-02-23T14:18:53;2.93;;;0.90;;
21258;SDS011;10787;53.364;-1.480;2024-02-23T14:21:36;3.00;;;1.00;;
21258;SDS011;10787;53.364;-1.480;2024-02-23T14:24:20;2.97;;;1.03;;
21258;SDS011;10787;53.364;-1.480;2024-02-23T14:27:05;3.47;;;1.00;;
21258;SDS011;10787;53.364;-1.480;2024-02-23T14:29:49;4.67;;;1.20;;
21258;SDS011;10787;53.364;-1.480;2024-02-23T14:32:34;1.77;;;1.10;;
21258;SDS011;10787;53.364;-1.480;2024-02-23T14:35:18;3.07;;;1.30;;
21258;SDS011;10787;53.364;-1.480;2024-02-23T14:38:03;3.97;;;1.10;;
21258;SDS011;10787;53.364;-1.480;2024-02-23T14:40:48;3.27;;;1.20;;
21258;SDS011;10787;53.364;-1.480;2024-02-23T14:43:32;3.37;;;1.30;;
21258;SDS011;10787;53.364;-1.480;2024-02-23T14:46:17;5.23;;;1.43;;
21258;SDS011;10787;53.364;-1.480;2024-02-23T14:49:01;5.43;;;1.40;;
21258;SDS011;10787;53.364;-1.480;2024-02-23T14:51:45;2.67;;;1.10;;
21258;SDS011;10787;53.364;-1.480;2024-02-23T14:54:31;3.57;;;1.20;;
21258;SDS011;10787;53.364;-1.480;2024-02-23T14:57:16;3.60;;;1.10;;
21258;SDS011;10787;53.364;-1.480;2024-02-23T15:00:00;4.03;;;1.20;;
21258;SDS011;10787;53.364;-1.480;2024-02-23T15:02:47;3.20;;;1.30;;
21258;SDS011;10787;53.364;-1.480;2024-02-23T15:05:31;4.63;;;1.50;;
21258;SDS011;10787;53.364;-1.480;2024-02-23T15:08:15;3.97;;;1.43;;
21258;SDS011;10787;53.364;-1.480;2024-02-23T15:10:59;4.70;;;1.60;;
21258;SDS011;10787;53.364;-1.480;2024-02-23T15:13:44;3.27;;;1.30;;
21258;SDS011;10787;53.364;-1.480;2024-02-23T15:16:28;3.30;;;1.50;;
21258;SDS011;10787;53.364;-1.480;2024-02-23T15:19:14;3.47;;;1.37;;
21258;SDS011;10787;53.364;-1.480;2024-02-23T15:21:59;5.70;;;2.00;;
21258;SDS011;10787;53.364;-1.480;2024-02-23T15:24:44;3.40;;;1.50;;
21258;SDS011;10787;53.364;-1.480;2024-02-23T15:27:33;4.93;;;1.70;;
21258;SDS011;10787;53.364;-1.480;2024-02-23T15:30:17;2.40;;;0.90;;
21258;SDS011;10787;53.364;-1.480;2024-02-23T15:33:01;4.70;;;1.33;;
21258;SDS011;10787;53.364;-1.480;2024-02-23T15:35:46;3.70;;;1.20;;
21258;SDS011;10787;53.364;-1.480;2024-02-23T15:38:30;3.33;;;1.60;;
21258;SDS011;10787;53.364;-1.480;2024-02-23T15:41:14;6.17;;;1.60;;
21258;SDS011;10787;53.364;-1.480;2024-02-23T15:43:58;3.53;;;1.23;;
21258;SDS011;10787;53.364;-1.480;2024-02-23T15:46:42;4.00;;;0.90;;
21258;SDS011;10787;53.364;-1.480;2024-02-23T15:49:27;3.23;;;1.10;;
21258;SDS011;10787;53.364;-1.480;2024-02-23T15:52:11;4.03;;;1.17;;
21258;SDS011;10787;53.364;-1.480;2024-02-23T15:54:55;4.47;;;1.27;;
21258;SDS011;10787;53.364;-1.480;2024-02-23T15:57:40;7.57;;;1.43;;
21258;SDS011;10787;53.364;-1.480;2024-02-23T16:00:24;5.37;;;1.40;;
21258;SDS011;10787;53.364;-1.480;2024-02-23T16:03:08;3.73;;;1.30;;
21258;SDS011;10787;53.364;-1.480;2024-02-23T16:05:53;4.67;;;1.30;;
21258;SDS011;10787;53.364;-1.480;2024-02-23T16:08:43;5.70;;;1.50;;
21258;SDS011;10787;53.364;-1.480;2024-02-23T16:11:29;3.57;;;1.43;;
21258;SDS011;10787;53.364;-1.480;2024-02-23T16:14:15;3.53;;;1.40;;
21258;SDS011;10787;53.364;-1.480;2024-02-23T16:17:00;4.90;;;1.80;;